Hiles, South Dakota
Current Conditions -  °F | °C
As of 2:55 AM on Wednesday 22 Oct 2014 (Local Time) from KPHP Reporting Station
Few Clouds Few Clouds  
Wind Chill: 63°   Ceiling: Unl
Heat Index: 63°   Visibility: 10mi
Dew Point: 48°   Wind: 6mph
Humidity: 58%   Direction: 280°W
Pressure: 29.77"   Gusts: NA
Location:  43.5487°N, 101.811°W
Report Text: KPHP 220855Z AUTO 28005KT 10SM FEW110 17/09 A2977 RMK AO2 SLP063 T01720089 53012
Loading
Personal Weather Stations






























Interactive Weather Map
Tropical Storm Tracking
New forecast layout! Learn more

10-Day Weather Forecast

Advertisements
Track Severe Weather on mobile